Airfield :
LOGIN :

Register | Disclaimer

   EN    FR    IT 

 










Legend :    VFR   Marginal VFR   IFR   Intensive IFR   Very Intensive IFR
Visi :
Ceiling :
>= 8 km
>= 3000ft
5 to 8 km
1000 to 3000 ft
1500m to 5 km
500 to 1000 ft
800 to 1500m
200 to 500 ft
< 800m
< 200 ft
Symbols :   Thunderstorms  Fog  Heavy snow  Heavy precipitations  Wind > 20 kt
SIGMETs :     Misc.  Thunderstorms  Icing  Turbulence  Mountain Waves  Volcanic Ashes






- Airport Elevation : 313 ft
- IATA code : LEH


LFOH - Le Havre Octeville

CURRENT METAR :
  • 280730Z AUTO 36022KT 9999 BKN019 OVC024 05/02 Q1005 TEMPO 3000 SHRA BKN020CB BECMG 35025G35KT

EXPIRED METARs :
  • 280700Z AUTO 01022KT 9999 BKN019 OVC024 05/01 Q1004 TEMPO 3000 SHRA BKN020CB BECMG 35025G35KT
  • 280630Z AUTO 01021KT 9999 OVC019 05/01 Q1004 TEMPO 3000 SHRA BKN020CB BECMG 35025G35KT
  • 280600Z AUTO 36022KT 9999 BKN017 OVC022 05/02 Q1004 TEMPO 3000 SHRA BKN020CB BECMG 35025G35KT
  • 280530Z AUTO 36023KT 340V040 9999 OVC018 05/01 Q1004 TEMPO 3000 SHRA BKN020CB BECMG 35025G35KT
  • 280500Z AUTO 36022KT 9999 OVC017 05/01 Q1003

TAF TAF LFOH
Valid from the 28 at 06:00 until the 29 at 06:00 UTC


280500Z 2806/2906 35025G35KT 9999 BKN020
TEMPO 2806/2812 3000 SHRA BKN020CB
BECMG 2815/2818 33015G25KT
BECMG 2819/2821 02008KT
TEMPO 2821/2901 1500 SHRASN BKN005 BKN020CB
BECMG 2901/2904 36015G25KT
ATIS : +33 2 35 54 64 93



MET'MAP, your aeronautical weather chart ! - Copyright ORBIFLY December 2007 - Disclaimer

ORBIFLY MET'MAP TEAM :

Programming & Development : Alexandra Zaïnal
Concept & original design : Baudouin d'Aumeries
Assistance for programming : Marc-Olivier Méhu
Technical & hardware support : Manuel Goepfert

Contact : metmap@orbifly.com




SOURCES & CREDITS :

   NOAA